Time;durP1;ratioP1;P1;durP2;ratioP2;P2;SDS_P1;SDS_P2;PMS_P1;PMS_P2;Temp;Humidity;BMP_temperature;BMP_pressure;BME280_temperature;BME280_humidity;BME280_pressure;Samples;Min_cycle;Max_cycle;Signal;HPM_P1;HPM_P2
2022/03/15 00:01:13;;;;;;;2.58;1.20;;;7.90;99.90;;;;;;5048534;28;20135;-61
2022/03/15 00:03:39;;;;;;;1.90;1.30;;;7.90;99.90;;;;;;5046869;28;20489;-61
2022/03/15 00:06:07;;;;;;;2.42;1.35;;;7.80;99.90;;;;;;5030282;28;20110;-61
2022/03/15 00:08:33;;;;;;;2.30;1.33;;;7.70;99.90;;;;;;5047845;28;20516;-61
2022/03/15 00:11:05;;;;;;;2.35;1.38;;;7.70;99.90;;;;;;5052943;28;20129;-61
2022/03/15 00:13:35;;;;;;;2.60;1.30;;;7.60;99.90;;;;;;5048572;28;20155;-61
2022/03/15 00:16:03;;;;;;;2.47;1.73;;;7.60;99.90;;;;;;5047668;28;20048;-61
2022/03/15 00:18:30;;;;;;;2.05;1.25;;;7.50;99.90;;;;;;5046462;28;20065;-61
2022/03/15 00:21:02;;;;;;;2.97;1.20;;;7.50;99.90;;;;;;5031836;28;20500;-62
2022/03/15 00:23:29;;;;;;;3.63;1.50;;;7.40;99.90;;;;;;5054833;28;20520;-61
2022/03/15 00:25:56;;;;;;;2.67;1.30;;;7.40;99.90;;;;;;5036261;28;20128;-60
2022/03/15 00:28:23;;;;;;;1.98;1.20;;;7.40;99.90;;;;;;5051645;28;20215;-61
2022/03/15 00:30:50;;;;;;;2.92;1.40;;;7.30;99.90;;;;;;5047590;28;20143;-60
2022/03/15 00:33:17;;;;;;;2.85;1.33;;;7.30;99.90;;;;;;5033189;28;20044;-61
2022/03/15 00:35:44;;;;;;;4.10;1.50;;;7.30;99.90;;;;;;5053703;28;20527;-62
2022/03/15 00:38:11;;;;;;;2.55;1.40;;;7.30;99.90;;;;;;5055120;28;20121;-61
2022/03/15 00:40:39;;;;;;;2.40;1.50;;;7.30;99.90;;;;;;5055421;28;20131;-61
2022/03/15 00:43:06;;;;;;;2.45;1.30;;;7.30;99.90;;;;;;5052744;28;20595;-60
2022/03/15 00:45:33;;;;;;;2.22;1.33;;;7.30;99.90;;;;;;5052514;28;20227;-61
2022/03/15 00:47:59;;;;;;;2.35;1.10;;;7.30;99.90;;;;;;5038779;28;20131;-60
2022/03/15 00:50:28;;;;;;;2.50;1.50;;;7.30;99.90;;;;;;5057004;28;20083;-61
2022/03/15 00:52:56;;;;;;;2.30;1.10;;;7.20;99.90;;;;;;5051003;28;20148;-63
2022/03/15 00:55:22;;;;;;;1.77;1.08;;;7.20;99.90;;;;;;5051590;28;20140;-61
2022/03/15 00:57:49;;;;;;;2.55;1.17;;;7.20;99.90;;;;;;5050710;28;20489;-60
2022/03/15 01:00:17;;;;;;;1.63;0.98;;;7.20;99.90;;;;;;5050433;28;20191;-61
2022/03/15 01:02:44;;;;;;;3.90;1.20;;;7.10;99.90;;;;;;5047999;28;20131;-58
2022/03/15 01:05:11;;;;;;;2.05;1.20;;;7.10;99.90;;;;;;5051488;28;20055;-60
2022/03/15 01:07:37;;;;;;;1.55;1.10;;;7.10;99.90;;;;;;5056362;28;20068;-61
2022/03/15 01:10:05;;;;;;;2.28;1.00;;;7.00;99.90;;;;;;5057722;28;20131;-60
2022/03/15 01:12:31;;;;;;;3.00;1.48;;;7.00;99.90;;;;;;5057435;28;20500;-60
2022/03/15 01:14:58;;;;;;;2.35;1.05;;;7.00;99.90;;;;;;5056208;28;20123;-60
2022/03/15 01:17:25;;;;;;;2.75;1.13;;;7.00;99.90;;;;;;5057027;28;20843;-60
2022/03/15 01:19:51;;;;;;;2.10;1.20;;;6.90;99.90;;;;;;5055362;28;20076;-61
2022/03/15 01:22:18;;;;;;;3.42;1.38;;;6.90;99.90;;;;;;5057257;28;20143;-61
2022/03/15 01:24:45;;;;;;;3.10;1.05;;;6.90;99.90;;;;;;5056957;28;20075;-61
2022/03/15 01:27:12;;;;;;;3.70;1.58;;;6.80;99.90;;;;;;5057384;28;20136;-61
2022/03/15 01:29:39;;;;;;;1.88;1.30;;;6.80;99.90;;;;;;5056555;28;20128;-61
2022/03/15 01:32:06;;;;;;;2.33;1.02;;;6.80;99.90;;;;;;5056503;28;20508;-61
2022/03/15 01:34:33;;;;;;;1.42;1.10;;;6.80;99.90;;;;;;5050513;28;20083;-60
2022/03/15 01:36:59;;;;;;;2.75;1.30;;;6.80;99.90;;;;;;5050529;28;20127;-60
2022/03/15 01:39:26;;;;;;;2.33;1.17;;;6.80;99.90;;;;;;5031853;28;20151;-61
2022/03/15 01:41:54;;;;;;;3.25;1.33;;;6.80;99.90;;;;;;5049396;28;20620;-61
2022/03/15 01:44:21;;;;;;;1.92;1.20;;;6.80;99.90;;;;;;5051265;28;20137;-61
2022/03/15 01:46:48;;;;;;;3.75;1.35;;;6.80;99.90;;;;;;5050185;28;20460;-61
2022/03/15 01:49:15;;;;;;;1.75;1.00;;;6.80;99.90;;;;;;5050574;28;20049;-61
2022/03/15 01:51:43;;;;;;;2.40;1.00;;;6.80;99.90;;;;;;5053150;28;20935;-61
2022/03/15 01:54:10;;;;;;;2.58;1.08;;;6.80;99.90;;;;;;5053848;28;20594;-62
2022/03/15 01:56:40;;;;;;;2.35;1.30;;;6.80;99.90;;;;;;5057605;28;20091;-61
2022/03/15 01:59:11;;;;;;;2.63;1.02;;;6.80;99.90;;;;;;5057440;28;20164;-61
2022/03/15 02:01:39;;;;;;;4.38;1.45;;;6.80;99.90;;;;;;5060933;28;20155;-61
2022/03/15 02:04:07;;;;;;;2.72;1.38;;;6.80;99.90;;;;;;5057283;28;20056;-61
2022/03/15 02:06:38;;;;;;;1.70;1.17;;;6.90;99.90;;;;;;5036749;28;20127;-61
2022/03/15 02:09:12;;;;;;;1.95;1.17;;;6.90;99.90;;;;;;5060743;28;20144;-61
2022/03/15 02:11:39;;;;;;;3.10;1.50;;;6.90;99.90;;;;;;5043169;28;20534;-61
2022/03/15 02:14:06;;;;;;;2.97;1.67;;;6.90;99.90;;;;;;5039280;28;20049;-61
2022/03/15 02:16:33;;;;;;;2.13;1.45;;;6.90;99.90;;;;;;5042383;28;20068;-61
2022/03/15 02:19:00;;;;;;;3.05;1.30;;;6.90;99.90;;;;;;5059442;28;20896;-61
2022/03/15 02:21:27;;;;;;;1.98;1.33;;;7.00;99.90;;;;;;5055624;28;20063;-61
2022/03/15 02:23:54;;;;;;;2.08;1.38;;;7.00;99.90;;;;;;5034862;28;20501;-61
2022/03/15 02:26:21;;;;;;;2.60;1.20;;;7.00;99.90;;;;;;5052950;28;20527;-61
2022/03/15 02:28:48;;;;;;;2.47;1.25;;;7.10;99.90;;;;;;5053265;28;20333;-61
2022/03/15 02:31:15;;;;;;;5.00;1.40;;;7.10;99.90;;;;;;5058251;28;20074;-60
2022/03/15 02:33:42;;;;;;;4.00;1.40;;;7.10;99.90;;;;;;5056050;28;20049;-61
2022/03/15 02:36:09;;;;;;;3.20;1.40;;;7.20;99.90;;;;;;5051025;28;20155;-61
2022/03/15 02:38:36;;;;;;;2.83;1.33;;;7.20;99.90;;;;;;5052531;28;20071;-61
2022/03/15 02:41:03;;;;;;;2.33;1.27;;;7.20;99.90;;;;;;5058432;28;20076;-61
2022/03/15 02:43:29;;;;;;;2.60;1.27;;;7.20;99.90;;;;;;5054719;28;20487;-61
2022/03/15 02:45:56;;;;;;;4.43;1.65;;;7.30;99.90;;;;;;5056089;28;20123;-61
2022/03/15 02:48:24;;;;;;;3.15;1.05;;;7.30;99.90;;;;;;5053219;28;20045;-60
2022/03/15 02:50:50;;;;;;;2.45;1.38;;;7.30;99.90;;;;;;5052674;28;20119;-61
2022/03/15 02:53:17;;;;;;;2.08;1.20;;;7.40;99.90;;;;;;5042443;28;20053;-61
2022/03/15 02:55:46;;;;;;;3.08;1.75;;;7.40;99.90;;;;;;5059975;28;20091;-61
2022/03/15 02:58:13;;;;;;;2.00;1.38;;;7.40;99.90;;;;;;5060169;28;20044;-61
2022/03/15 03:00:41;;;;;;;3.70;1.58;;;7.40;99.90;;;;;;5052751;28;20152;-62
2022/03/15 03:03:08;;;;;;;1.58;1.10;;;7.50;99.90;;;;;;5037516;28;20148;-61
2022/03/15 03:05:35;;;;;;;2.42;1.40;;;7.40;99.90;;;;;;5058672;28;20040;-62
2022/03/15 03:08:05;;;;;;;4.22;1.63;;;7.50;99.90;;;;;;5059323;28;20072;-61
2022/03/15 03:10:32;;;;;;;3.33;1.83;;;7.50;99.90;;;;;;5058961;28;20733;-61
2022/03/15 03:12:59;;;;;;;2.33;1.20;;;7.40;99.90;;;;;;5059716;28;20044;-60
2022/03/15 03:15:26;;;;;;;1.98;1.30;;;7.40;99.90;;;;;;5041888;28;20049;-60
2022/03/15 03:17:53;;;;;;;3.10;1.50;;;7.40;99.90;;;;;;5057141;28;20539;-60
2022/03/15 03:20:21;;;;;;;2.53;1.30;;;7.40;99.90;;;;;;5058210;28;20075;-61
2022/03/15 03:22:50;;;;;;;4.60;1.65;;;7.40;99.90;;;;;;5057055;28;20439;-61
2022/03/15 03:25:17;;;;;;;3.13;1.23;;;7.40;99.90;;;;;;5052898;28;20402;-61
2022/03/15 03:27:46;;;;;;;2.22;1.20;;;7.40;99.90;;;;;;5052561;28;20129;-60
2022/03/15 03:30:13;;;;;;;3.13;1.40;;;7.40;99.90;;;;;;5052028;28;20041;-61
2022/03/15 03:32:41;;;;;;;3.58;1.88;;;7.40;99.90;;;;;;5052785;28;20640;-61
2022/03/15 03:35:08;;;;;;;3.47;1.52;;;7.30;99.90;;;;;;5059130;28;20045;-61
2022/03/15 03:37:34;;;;;;;2.92;1.58;;;7.30;99.90;;;;;;5059694;28;20487;-61
2022/03/15 03:40:07;;;;;;;3.80;1.27;;;7.30;99.90;;;;;;5040853;28;20044;-61
2022/03/15 03:42:35;;;;;;;3.70;1.38;;;7.20;99.90;;;;;;5059073;28;20061;-61
2022/03/15 03:45:03;;;;;;;3.58;1.38;;;7.20;99.90;;;;;;5040171;28;20207;-61
2022/03/15 03:47:30;;;;;;;1.77;1.13;;;7.20;99.90;;;;;;5057169;28;20079;-61
2022/03/15 03:49:57;;;;;;;3.45;1.25;;;7.20;99.90;;;;;;5040406;28;20136;-60
2022/03/15 03:52:23;;;;;;;2.55;1.40;;;7.20;99.90;;;;;;5059989;28;20079;-61
2022/03/15 03:54:50;;;;;;;2.00;1.23;;;7.10;99.90;;;;;;5057391;28;20124;-61
2022/03/15 03:57:17;;;;;;;2.60;1.35;;;7.10;99.90;;;;;;5052572;28;20044;-61
2022/03/15 03:59:44;;;;;;;4.95;2.17;;;7.10;99.90;;;;;;5051494;28;20523;-60
2022/03/15 04:02:12;;;;;;;3.10;1.52;;;7.10;99.90;;;;;;5052137;28;20048;-61
2022/03/15 04:04:39;;;;;;;3.38;1.58;;;7.10;99.90;;;;;;5050957;28;20083;-61
2022/03/15 04:07:11;;;;;;;4.10;1.90;;;7.00;99.90;;;;;;5051772;28;20428;-59
2022/03/15 04:09:39;;;;;;;4.85;1.83;;;7.00;99.90;;;;;;5050921;28;20041;-62
2022/03/15 04:12:06;;;;;;;3.75;1.92;;;7.00;99.90;;;;;;5059110;28;20103;-61
2022/03/15 04:14:36;;;;;;;2.75;1.45;;;7.00;99.90;;;;;;5057952;28;20055;-61
2022/03/15 04:17:03;;;;;;;3.33;1.60;;;7.00;99.90;;;;;;5058157;28;20418;-61
2022/03/15 04:19:30;;;;;;;4.38;1.85;;;7.00;99.90;;;;;;5057468;28;20091;-61
2022/03/15 04:21:58;;;;;;;2.83;1.48;;;6.90;99.90;;;;;;5057562;28;20119;-61
2022/03/15 04:24:25;;;;;;;3.33;1.70;;;6.90;99.90;;;;;;5059224;28;20049;-61
2022/03/15 04:26:52;;;;;;;2.08;1.38;;;6.90;99.90;;;;;;5051494;28;20135;-61
2022/03/15 04:29:20;;;;;;;3.22;1.70;;;6.90;99.90;;;;;;5051048;28;20535;-61
2022/03/15 04:31:47;;;;;;;3.22;1.52;;;6.90;99.90;;;;;;5051031;28;20057;-61
2022/03/15 04:34:14;;;;;;;1.88;1.45;;;6.80;99.90;;;;;;5051840;28;20607;-61
2022/03/15 04:36:41;;;;;;;3.55;1.98;;;6.80;99.90;;;;;;5050395;28;20077;-61
2022/03/15 04:39:07;;;;;;;2.85;1.73;;;6.80;99.90;;;;;;5057953;28;20037;-61
2022/03/15 04:41:34;;;;;;;2.90;1.55;;;6.80;99.90;;;;;;5057808;28;20048;-61
2022/03/15 04:44:01;;;;;;;3.45;2.05;;;6.80;99.90;;;;;;5057360;28;20665;-61
2022/03/15 04:46:28;;;;;;;4.18;1.65;;;6.80;99.90;;;;;;5058247;28;20102;-61
2022/03/15 04:48:56;;;;;;;2.72;1.70;;;6.80;99.90;;;;;;5058274;28;20677;-61
2022/03/15 04:51:24;;;;;;;3.15;1.88;;;6.70;99.90;;;;;;5053864;28;20095;-61
2022/03/15 04:53:51;;;;;;;3.95;1.90;;;6.70;99.90;;;;;;5055334;28;20494;-61
2022/03/15 04:56:18;;;;;;;4.47;1.70;;;6.60;99.90;;;;;;5054504;28;20087;-61
2022/03/15 04:58:45;;;;;;;2.75;1.60;;;6.60;99.90;;;;;;5051467;28;20661;-61
2022/03/15 05:01:11;;;;;;;4.63;2.00;;;6.60;99.90;;;;;;5050678;28;20123;-60
2022/03/15 05:03:39;;;;;;;3.33;1.95;;;6.60;99.90;;;;;;5056706;28;20430;-61
2022/03/15 05:06:05;;;;;;;2.80;1.67;;;6.60;99.90;;;;;;5021794;28;20420;-61
2022/03/15 05:08:32;;;;;;;4.20;2.33;;;6.50;99.90;;;;;;5039856;28;20444;-61
2022/03/15 05:11:08;;;;;;;4.07;2.17;;;6.50;99.90;;;;;;5058776;28;20124;-61
2022/03/15 05:13:45;;;;;;;2.55;1.90;;;6.40;99.90;;;;;;5055228;28;20048;-61
2022/03/15 05:16:18;;;;;;;3.45;1.75;;;6.40;99.90;;;;;;5053641;28;20730;-61
2022/03/15 05:18:46;;;;;;;3.70;1.70;;;6.40;99.90;;;;;;5038491;28;20152;-61
2022/03/15 05:21:14;;;;;;;3.67;1.40;;;6.30;99.90;;;;;;5057539;28;20076;-61
2022/03/15 05:23:42;;;;;;;3.28;1.85;;;6.30;99.90;;;;;;5054616;28;20053;-61
2022/03/15 05:26:09;;;;;;;2.65;1.30;;;6.20;99.90;;;;;;5039757;28;20627;-60
2022/03/15 05:28:36;;;;;;;3.30;1.60;;;6.20;99.90;;;;;;5057441;28;20140;-60
2022/03/15 05:31:03;;;;;;;2.78;1.80;;;6.20;99.90;;;;;;5057532;28;20115;-61
2022/03/15 05:33:30;;;;;;;2.85;1.50;;;6.10;99.90;;;;;;5057713;28;20044;-61
2022/03/15 05:35:57;;;;;;;2.28;1.50;;;6.00;99.90;;;;;;5061746;28;20535;-61
2022/03/15 05:38:23;;;;;;;2.97;1.75;;;6.00;99.90;;;;;;5043948;28;20491;-61
2022/03/15 05:40:50;;;;;;;3.75;1.70;;;6.00;99.90;;;;;;5061178;28;20041;-61
2022/03/15 05:43:18;;;;;;;2.20;1.60;;;6.00;99.90;;;;;;5057559;28;20045;-60
2022/03/15 05:45:46;;;;;;;2.55;1.45;;;6.00;99.90;;;;;;5059330;28;20231;-61
2022/03/15 05:48:13;;;;;;;3.85;2.22;;;5.90;99.90;;;;;;5055822;28;20051;-60
2022/03/15 05:50:39;;;;;;;4.10;1.50;;;5.90;99.90;;;;;;5056497;28;20117;-61
2022/03/15 05:53:07;;;;;;;4.00;1.67;;;5.90;99.90;;;;;;5058639;28;20579;-61
2022/03/15 05:55:35;;;;;;;2.95;1.83;;;5.90;99.90;;;;;;5054962;28;20080;-61
2022/03/15 05:58:02;;;;;;;3.00;1.77;;;5.80;99.90;;;;;;5036784;28;20159;-61
2022/03/15 06:00:29;;;;;;;3.13;1.80;;;5.80;99.90;;;;;;5047158;28;20579;-61
2022/03/15 06:02:55;;;;;;;2.80;1.63;;;5.80;99.90;;;;;;5053495;28;20060;-60
2022/03/15 06:05:22;;;;;;;2.33;1.50;;;5.80;99.90;;;;;;5049494;28;20110;-61
2022/03/15 06:07:50;;;;;;;2.50;1.70;;;5.70;99.90;;;;;;5051280;28;20136;-61
2022/03/15 06:10:18;;;;;;;3.33;2.10;;;5.70;99.90;;;;;;5045991;28;20045;-61
2022/03/15 06:12:45;;;;;;;5.50;3.33;;;5.70;99.90;;;;;;5053606;28;20498;-61
2022/03/15 06:15:12;;;;;;;2.78;1.73;;;5.70;99.90;;;;;;5048869;28;20155;-60
2022/03/15 06:17:48;;;;;;;3.25;2.00;;;5.70;99.90;;;;;;5054352;28;20511;-61
2022/03/15 06:20:17;;;;;;;2.35;1.60;;;5.70;99.90;;;;;;5049147;28;20052;-58
2022/03/15 06:22:45;;;;;;;2.63;1.52;;;5.70;99.90;;;;;;5048660;28;20128;-60
2022/03/15 06:25:12;;;;;;;2.60;1.55;;;5.70;99.90;;;;;;5047942;28;20785;-60
2022/03/15 06:27:40;;;;;;;3.17;1.77;;;5.70;99.90;;;;;;5048758;28;20080;-60
2022/03/15 06:30:08;;;;;;;4.38;2.13;;;5.70;99.90;;;;;;5049134;28;20142;-60
2022/03/15 06:32:34;;;;;;;3.72;1.88;;;5.70;99.90;;;;;;5057598;28;20045;-60
2022/03/15 06:35:07;;;;;;;3.72;2.30;;;5.70;99.90;;;;;;5057290;28;20048;-59
2022/03/15 06:37:43;;;;;;;3.28;2.05;;;5.70;99.90;;;;;;5050307;28;20369;-58
2022/03/15 06:40:10;;;;;;;3.13;1.98;;;5.70;99.90;;;;;;5058873;28;20057;-58
2022/03/15 06:42:38;;;;;;;3.08;2.20;;;5.80;99.90;;;;;;5056627;28;20160;-58
2022/03/15 06:45:08;;;;;;;3.47;2.25;;;5.80;99.90;;;;;;5047550;28;20161;-58
2022/03/15 06:47:35;;;;;;;3.83;2.10;;;5.90;99.90;;;;;;5031255;28;20135;-58
2022/03/15 06:50:04;;;;;;;2.45;1.75;;;5.90;99.90;;;;;;5048675;28;20048;-58
2022/03/15 06:52:30;;;;;;;5.15;2.53;;;5.90;99.90;;;;;;5052785;28;20143;-58
2022/03/15 06:54:57;;;;;;;2.78;2.30;;;5.90;99.90;;;;;;5052674;28;20806;-59
2022/03/15 06:57:24;;;;;;;2.63;2.00;;;6.00;99.90;;;;;;5060320;28;20163;-58
2022/03/15 06:59:51;;;;;;;3.22;1.77;;;6.00;99.90;;;;;;5045665;28;20176;-58
2022/03/15 07:02:17;;;;;;;2.55;1.67;;;6.10;99.90;;;;;;5050234;28;20231;-59
2022/03/15 07:04:45;;;;;;;5.05;2.67;;;6.10;99.90;;;;;;5051371;28;20060;-59
2022/03/15 07:07:11;;;;;;;3.15;2.00;;;6.10;99.90;;;;;;5049217;28;20068;-60
2022/03/15 07:09:38;;;;;;;4.32;2.08;;;6.20;99.90;;;;;;5052120;28;20187;-60
2022/03/15 07:12:05;;;;;;;5.38;2.45;;;6.30;99.90;;;;;;5059429;28;20136;-60
2022/03/15 07:14:32;;;;;;;3.80;2.13;;;6.30;99.90;;;;;;5058753;28;20139;-59
2022/03/15 07:16:59;;;;;;;2.63;1.90;;;6.30;99.90;;;;;;5054839;28;20587;-60
2022/03/15 07:19:27;;;;;;;3.55;2.33;;;6.40;99.90;;;;;;5049094;28;20072;-60
2022/03/15 07:21:54;;;;;;;3.05;2.47;;;6.40;99.90;;;;;;5047811;28;20044;-59
2022/03/15 07:24:21;;;;;;;3.97;2.45;;;6.40;99.90;;;;;;5059699;28;20474;-59
2022/03/15 07:26:48;;;;;;;3.67;2.42;;;6.50;99.90;;;;;;5060229;28;20056;-60
2022/03/15 07:29:15;;;;;;;2.97;2.40;;;6.50;99.90;;;;;;5059609;28;20508;-60
2022/03/15 07:31:41;;;;;;;3.58;2.60;;;6.50;99.90;;;;;;5060257;28;20091;-60
2022/03/15 07:34:08;;;;;;;4.35;2.47;;;6.50;99.90;;;;;;5059549;28;20084;-59
2022/03/15 07:36:35;;;;;;;4.80;2.50;;;6.50;99.90;;;;;;5060158;28;20084;-60
2022/03/15 07:39:04;;;;;;;4.88;3.05;;;6.60;99.90;;;;;;5060219;28;20076;-60
2022/03/15 07:41:37;;;;;;;4.95;2.88;;;6.60;99.90;;;;;;5060554;28;20051;-60
2022/03/15 07:44:05;;;;;;;3.97;2.28;;;6.60;99.90;;;;;;5059503;28;20140;-60
2022/03/15 07:46:33;;;;;;;5.03;2.50;;;6.70;99.90;;;;;;5059698;28;20136;-60
2022/03/15 07:49:00;;;;;;;3.60;2.33;;;6.70;99.90;;;;;;5059361;28;20053;-60
2022/03/15 07:51:27;;;;;;;4.28;2.55;;;6.70;99.90;;;;;;5059651;28;20139;-60
2022/03/15 07:53:54;;;;;;;3.83;2.65;;;6.80;99.90;;;;;;5059918;28;20083;-60
2022/03/15 07:56:21;;;;;;;4.97;3.20;;;6.80;99.90;;;;;;5058462;28;20056;-60
2022/03/15 07:58:48;;;;;;;4.05;2.42;;;6.80;99.90;;;;;;5056274;28;20201;-59
2022/03/15 08:01:15;;;;;;;2.90;2.20;;;6.90;99.90;;;;;;5041542;28;20091;-60
2022/03/15 08:03:42;;;;;;;3.72;2.63;;;6.90;99.90;;;;;;5040479;28;20056;-60
2022/03/15 08:06:09;;;;;;;4.45;2.83;;;7.00;99.90;;;;;;5059231;28;20405;-59
2022/03/15 08:08:35;;;;;;;5.47;2.92;;;7.00;99.90;;;;;;5055938;28;20072;-59
2022/03/15 08:11:06;;;;;;;4.22;3.00;;;7.10;99.90;;;;;;5052646;28;20049;-60
2022/03/15 08:13:34;;;;;;;4.82;2.60;;;7.20;99.90;;;;;;5041711;28;20668;-61
2022/03/15 08:16:05;;;;;;;4.28;2.70;;;7.20;99.90;;;;;;5038639;28;20065;-60
2022/03/15 08:18:32;;;;;;;4.80;2.97;;;7.30;99.90;;;;;;5034175;28;20125;-60
2022/03/15 08:20:59;;;;;;;4.38;3.03;;;7.30;99.90;;;;;;5045467;28;20136;-60
2022/03/15 08:23:27;;;;;;;5.00;3.30;;;7.40;99.90;;;;;;5058218;28;20618;-59
2022/03/15 08:25:55;;;;;;;4.65;3.03;;;7.40;99.90;;;;;;5050679;28;20111;-59
2022/03/15 08:28:24;;;;;;;5.35;3.33;;;7.50;99.90;;;;;;5053179;28;20053;-59
2022/03/15 08:30:52;;;;;;;5.82;3.13;;;7.50;99.90;;;;;;5053635;28;20081;-60
2022/03/15 08:33:23;;;;;;;4.95;3.67;;;7.60;99.90;;;;;;5051130;28;20057;-63
2022/03/15 08:35:49;;;;;;;5.00;3.15;;;7.70;99.90;;;;;;5058205;28;20056;-60
2022/03/15 08:38:16;;;;;;;4.97;3.50;;;7.70;99.90;;;;;;5040650;28;20132;-60
2022/03/15 08:40:43;;;;;;;5.78;3.28;;;7.80;99.90;;;;;;5058676;28;20056;-60
2022/03/15 08:43:10;;;;;;;6.07;3.38;;;7.90;99.90;;;;;;5058766;28;20136;-59
2022/03/15 08:45:37;;;;;;;4.50;3.38;;;7.90;99.90;;;;;;5040584;28;20135;-60
2022/03/15 08:48:04;;;;;;;3.40;2.60;;;8.00;99.90;;;;;;5039528;28;20140;-60
2022/03/15 08:50:31;;;;;;;5.43;3.35;;;8.10;99.90;;;;;;5037724;28;20456;-60
2022/03/15 08:52:58;;;;;;;4.88;3.03;;;8.10;99.90;;;;;;5046660;28;20080;-60
2022/03/15 08:55:26;;;;;;;6.53;3.55;;;8.20;99.90;;;;;;5029086;28;20461;-60
2022/03/15 08:57:53;;;;;;;4.53;3.50;;;8.30;99.90;;;;;;5044300;28;20131;-60
2022/03/15 09:00:20;;;;;;;5.93;3.50;;;8.40;99.90;;;;;;5046204;28;20080;-60
2022/03/15 09:02:47;;;;;;;6.18;3.70;;;8.50;99.90;;;;;;5051803;28;20429;-60
2022/03/15 09:05:18;;;;;;;5.80;3.38;;;8.60;99.90;;;;;;5056706;28;20122;-60
2022/03/15 09:07:49;;;;;;;7.22;3.30;;;8.70;99.90;;;;;;5021789;28;20080;-60
2022/03/15 09:10:16;;;;;;;8.35;3.28;;;8.80;99.90;;;;;;5056070;28;20139;-60
2022/03/15 09:12:43;;;;;;;6.80;3.97;;;9.00;99.90;;;;;;5057487;28;20139;-60
2022/03/15 09:15:10;;;;;;;4.28;3.47;;;9.10;99.90;;;;;;5057921;28;20091;-59
2022/03/15 09:17:36;;;;;;;6.60;4.30;;;9.30;99.90;;;;;;5057538;28;20535;-59
2022/03/15 09:20:21;;;;;;;4.78;3.30;;;9.40;99.90;;;;;;5056800;28;20084;-59
2022/03/15 09:22:48;;;;;;;7.10;3.55;;;9.50;99.90;;;;;;5058028;28;20044;-60
2022/03/15 09:25:15;;;;;;;4.60;3.50;;;9.60;99.90;;;;;;5039985;28;20088;-60
2022/03/15 09:27:42;;;;;;;5.75;3.15;;;9.80;99.90;;;;;;5058253;28;20107;-60
2022/03/15 09:30:09;;;;;;;4.97;2.95;;;9.90;99.90;;;;;;5057262;28;20063;-60
2022/03/15 09:32:36;;;;;;;4.05;2.67;;;10.00;99.90;;;;;;5057887;28;20102;-59
2022/03/15 09:35:03;;;;;;;3.78;2.65;;;10.20;99.90;;;;;;5048677;28;20128;-60
2022/03/15 09:37:30;;;;;;;4.93;2.60;;;10.40;99.90;;;;;;5041059;28;20556;-60
2022/03/15 09:39:57;;;;;;;4.70;2.83;;;10.50;99.90;;;;;;5015602;28;20121;-60
2022/03/15 09:42:26;;;;;;;4.78;2.42;;;10.60;99.90;;;;;;5050088;28;20574;-61
2022/03/15 09:44:53;;;;;;;4.18;2.28;;;10.80;99.90;;;;;;5057377;28;20761;-60
2022/03/15 09:47:22;;;;;;;3.20;2.03;;;11.00;99.90;;;;;;4993233;28;20139;-61
2022/03/15 09:49:49;;;;;;;3.22;2.00;;;11.10;99.90;;;;;;5028465;28;20128;-60
2022/03/15 09:52:16;;;;;;;5.47;2.20;;;11.30;99.90;;;;;;5020474;28;20053;-61
2022/03/15 09:54:43;;;;;;;5.40;2.28;;;11.50;99.90;;;;;;5036517;28;20065;-61
2022/03/15 09:57:11;;;;;;;2.00;1.17;;;11.70;99.90;;;;;;5037205;28;20127;-60
2022/03/15 09:59:38;;;;;;;3.88;1.65;;;11.90;99.90;;;;;;5048980;28;20800;-60
2022/03/15 10:02:05;;;;;;;2.08;1.42;;;12.10;99.90;;;;;;5030851;28;20087;-60
2022/03/15 10:04:32;;;;;;;3.35;1.40;;;12.20;99.90;;;;;;5053144;28;20097;-61
2022/03/15 10:06:58;;;;;;;3.80;1.90;;;12.30;99.90;;;;;;5055321;28;20048;-61
2022/03/15 10:09:26;;;;;;;2.28;1.30;;;12.40;99.90;;;;;;5035636;28;20186;-61
2022/03/15 10:11:54;;;;;;;4.25;1.52;;;12.40;99.90;;;;;;5057850;28;20048;-61
2022/03/15 10:14:21;;;;;;;2.55;1.20;;;12.50;99.90;;;;;;5049048;28;20136;-60
2022/03/15 10:16:49;;;;;;;2.08;1.20;;;12.70;99.90;;;;;;5039487;28;20164;-61
2022/03/15 10:19:16;;;;;;;3.45;1.67;;;12.80;99.90;;;;;;5046424;28;20056;-60
2022/03/15 10:21:55;;;;;;;1.92;1.20;;;12.90;99.90;;;;;;5060339;28;20098;-61
2022/03/15 10:24:26;;;;;;;3.20;1.55;;;13.00;99.90;;;;;;5053084;28;20566;-61
2022/03/15 10:26:55;;;;;;;2.13;1.00;;;13.10;99.90;;;;;;5048703;28;20084;-61
2022/03/15 10:29:23;;;;;;;1.55;1.05;;;13.20;99.90;;;;;;5050822;28;20083;-61
2022/03/15 10:31:51;;;;;;;2.97;1.00;;;13.20;99.90;;;;;;5023852;28;20067;-61
2022/03/15 10:34:19;;;;;;;3.85;1.42;;;13.20;99.90;;;;;;5025404;28;20107;-61
2022/03/15 10:36:47;;;;;;;2.55;1.10;;;13.20;99.90;;;;;;5008987;28;20080;-61
2022/03/15 10:39:15;;;;;;;1.98;0.98;;;13.20;99.90;;;;;;5044232;28;20088;-61
2022/03/15 10:41:59;;;;;;;3.33;1.00;;;13.30;99.90;;;;;;5045750;28;20135;-61
2022/03/15 10:44:30;;;;;;;3.10;1.30;;;13.40;99.90;;;;;;5063953;28;20131;-61
2022/03/15 10:47:01;;;;;;;4.18;1.40;;;13.40;99.90;;;;;;5063927;28;20131;-61
2022/03/15 10:49:28;;;;;;;2.70;1.30;;;13.30;99.90;;;;;;5062671;28;20087;-61
2022/03/15 10:51:56;;;;;;;4.03;1.00;;;13.50;99.90;;;;;;5046542;28;20040;-61
2022/03/15 10:54:26;;;;;;;2.53;0.80;;;13.60;99.90;;;;;;5064326;28;20904;-61
2022/03/15 10:56:57;;;;;;;3.05;1.20;;;13.70;99.90;;;;;;5060754;28;20041;-61
2022/03/15 10:59:24;;;;;;;2.15;1.25;;;13.80;99.90;;;;;;5057302;28;20099;-61
2022/03/15 11:01:52;;;;;;;2.17;1.10;;;13.90;99.90;;;;;;5055976;28;20061;-61
2022/03/15 11:04:19;;;;;;;3.05;1.25;;;14.10;99.90;;;;;;5057304;28;20108;-61
2022/03/15 11:06:50;;;;;;;3.97;1.40;;;14.20;99.90;;;;;;5061931;28;20072;-61
2022/03/15 11:09:27;;;;;;;2.03;1.10;;;14.40;99.90;;;;;;5047587;28;20131;-60
2022/03/15 11:12:04;;;;;;;2.65;1.20;;;14.60;99.90;;;;;;5055306;28;20463;-61
2022/03/15 11:14:36;;;;;;;2.72;1.40;;;14.70;99.90;;;;;;5026792;28;20508;-61
2022/03/15 11:17:05;;;;;;;2.92;1.40;;;14.90;99.90;;;;;;5051787;28;20048;-60
2022/03/15 11:19:32;;;;;;;3.38;1.48;;;15.00;99.90;;;;;;5043646;28;20049;-61
2022/03/15 11:21:59;;;;;;;1.88;1.10;;;15.20;99.90;;;;;;5017862;28;20128;-61
2022/03/15 11:24:26;;;;;;;2.35;1.10;;;15.30;99.90;;;;;;5042728;28;20102;-61
2022/03/15 11:26:53;;;;;;;3.00;1.52;;;15.50;99.90;;;;;;5050310;28;20112;-61
2022/03/15 11:29:22;;;;;;;3.03;1.70;;;15.30;99.90;;;;;;5032248;28;20088;-60
2022/03/15 11:31:50;;;;;;;3.22;1.60;;;15.20;99.90;;;;;;5048677;28;20116;-61
2022/03/15 11:34:19;;;;;;;3.90;1.67;;;15.20;99.90;;;;;;5060830;28;20056;-60
2022/03/15 11:36:46;;;;;;;2.20;1.27;;;15.20;99.90;;;;;;5057703;28;20527;-61
2022/03/15 11:39:13;;;;;;;3.83;1.40;;;15.20;99.90;;;;;;5051587;28;20056;-61
2022/03/15 11:41:39;;;;;;;3.13;1.75;;;15.30;99.90;;;;;;5051684;28;20153;-61
2022/03/15 11:44:14;;;;;;;4.55;1.40;;;15.30;99.90;;;;;;5016204;28;20160;-62
2022/03/15 11:46:50;;;;;;;3.00;1.20;;;15.60;99.90;;;;;;5039596;28;20079;-62
2022/03/15 11:49:27;;;;;;;1.65;1.17;;;16.00;99.90;;;;;;5052313;28;20055;-61
2022/03/15 11:52:12;;;;;;;5.38;1.90;;;16.50;99.90;;;;;;5025452;28;20060;-61
2022/03/15 11:55:02;;;;;;;2.80;1.15;;;17.00;99.90;;;;;;5039767;28;20122;-61
2022/03/15 11:57:40;;;;;;;1.50;1.08;;;17.30;99.90;;;;;;5051116;28;20090;-62
2022/03/15 12:00:07;;;;;;;1.38;0.85;;;17.50;99.90;;;;;;5029125;28;20048;-62
2022/03/15 12:02:39;;;;;;;3.50;1.00;;;17.60;99.90;;;;;;5061611;28;20828;-61
2022/03/15 12:05:17;;;;;;;4.45;1.45;;;17.70;99.90;;;;;;5050844;28;20053;-61
2022/03/15 12:07:46;;;;;;;2.67;1.17;;;17.70;99.90;;;;;;5038353;28;20106;-61
2022/03/15 12:10:23;;;;;;;3.70;1.60;;;17.80;99.90;;;;;;5035350;28;20099;-61
2022/03/15 12:13:03;;;;;;;2.78;1.20;;;17.70;99.50;;;;;;5046068;28;20080;-61
2022/03/15 12:15:35;;;;;;;2.40;1.00;;;17.70;99.50;;;;;;5034908;28;20132;-62
2022/03/15 12:18:14;;;;;;;3.67;1.52;;;18.00;99.50;;;;;;5035808;28;20101;-61
2022/03/15 12:20:46;;;;;;;2.58;1.15;;;18.10;98.50;;;;;;5057086;28;20190;-61
2022/03/15 12:23:23;;;;;;;4.13;1.42;;;18.30;97.60;;;;;;5052642;28;20152;-62
2022/03/15 12:25:54;;;;;;;1.83;1.10;;;18.40;97.20;;;;;;5062301;28;20076;-61
2022/03/15 12:28:31;;;;;;;3.30;1.15;;;18.60;96.60;;;;;;5044071;28;20056;-62
2022/03/15 12:31:05;;;;;;;2.33;0.80;;;18.60;95.20;;;;;;5055410;28;20084;-61
2022/03/15 12:33:32;;;;;;;3.78;1.23;;;18.80;95.40;;;;;;5049194;28;20049;-62
2022/03/15 12:36:06;;;;;;;1.85;1.10;;;18.90;94.80;;;;;;5038768;28;20144;-61
2022/03/15 12:38:35;;;;;;;1.48;0.70;;;19.00;94.30;;;;;;5052896;28;20126;-61
2022/03/15 12:41:03;;;;;;;3.95;1.15;;;19.10;94.60;;;;;;5058563;28;20529;-62
2022/03/15 12:43:30;;;;;;;1.67;0.90;;;19.10;94.70;;;;;;5039626;28;20136;-61
2022/03/15 12:46:04;;;;;;;1.30;0.85;;;19.10;93.90;;;;;;5027739;28;20147;-61
2022/03/15 12:48:36;;;;;;;2.92;0.93;;;19.10;93.80;;;;;;5057865;28;20151;-62
2022/03/15 12:51:04;;;;;;;2.63;1.08;;;19.10;93.60;;;;;;5014696;28;20571;-62
2022/03/15 12:53:42;;;;;;;3.63;1.33;;;19.10;93.70;;;;;;5026342;28;20199;-61
2022/03/15 12:56:12;;;;;;;2.17;0.98;;;19.40;93.00;;;;;;5038986;28;20080;-62
2022/03/15 12:58:40;;;;;;;2.33;0.90;;;19.50;93.10;;;;;;5041650;28;20123;-61
2022/03/15 13:01:10;;;;;;;4.57;1.10;;;19.70;92.10;;;;;;5056911;28;20143;-62